sensor_id;sensor_type;location;lat;lon;timestamp;pressure;altitude;pressure_sealevel;temperature;humidity
10718;BME280;13513;42.700;23.124;2023-03-14T00:01:45;93087.05;;;2.62;70.03
10718;BME280;13513;42.700;23.124;2023-03-14T00:04:16;93085.25;;;2.62;70.50
10718;BME280;13513;42.700;23.124;2023-03-14T00:06:46;93082.83;;;2.61;71.00
10718;BME280;13513;42.700;23.124;2023-03-14T00:09:17;93091.34;;;2.59;70.65
10718;BME280;13513;42.700;23.124;2023-03-14T00:11:48;93077.09;;;2.61;71.13
10718;BME280;13513;42.700;23.124;2023-03-14T00:14:19;93075.75;;;2.48;71.17
10718;BME280;13513;42.700;23.124;2023-03-14T00:16:49;93068.13;;;2.47;71.45
10718;BME280;13513;42.700;23.124;2023-03-14T00:19:23;93070.52;;;2.42;71.73
10718;BME280;13513;42.700;23.124;2023-03-14T00:21:54;93064.86;;;2.38;72.07
10718;BME280;13513;42.700;23.124;2023-03-14T00:24:25;93067.99;;;2.38;72.51
10718;BME280;13513;42.700;23.124;2023-03-14T00:26:57;93066.58;;;2.35;72.61
10718;BME280;13513;42.700;23.124;2023-03-14T00:29:27;93062.86;;;2.34;73.29
10718;BME280;13513;42.700;23.124;2023-03-14T00:31:58;93057.95;;;2.35;73.03
10718;BME280;13513;42.700;23.124;2023-03-14T00:34:32;93063.08;;;2.39;72.90
10718;BME280;13513;42.700;23.124;2023-03-14T00:37:04;93065.58;;;2.36;72.48
10718;BME280;13513;42.700;23.124;2023-03-14T00:39:34;93058.00;;;2.24;73.30
10718;BME280;13513;42.700;23.124;2023-03-14T00:42:05;93047.95;;;2.21;73.35
10718;BME280;13513;42.700;23.124;2023-03-14T00:44:35;93050.48;;;2.25;73.72
10718;BME280;13513;42.700;23.124;2023-03-14T00:47:06;93050.37;;;2.23;74.33
10718;BME280;13513;42.700;23.124;2023-03-14T00:49:37;93045.27;;;2.25;73.42
10718;BME280;13513;42.700;23.124;2023-03-14T00:52:07;93039.22;;;2.18;74.11
10718;BME280;13513;42.700;23.124;2023-03-14T00:54:38;93036.41;;;2.20;73.29
10718;BME280;13513;42.700;23.124;2023-03-14T00:57:08;93037.69;;;2.13;73.75
10718;BME280;13513;42.700;23.124;2023-03-14T00:59:39;93038.07;;;2.10;74.09
10718;BME280;13513;42.700;23.124;2023-03-14T01:02:09;93031.94;;;2.07;74.75
10718;BME280;13513;42.700;23.124;2023-03-14T01:04:40;93031.15;;;2.07;75.62
10718;BME280;13513;42.700;23.124;2023-03-14T01:07:11;93023.82;;;2.06;75.60
10718;BME280;13513;42.700;23.124;2023-03-14T01:09:42;93028.84;;;2.08;75.17
10718;BME280;13513;42.700;23.124;2023-03-14T01:12:13;93031.07;;;2.11;74.41
10718;BME280;13513;42.700;23.124;2023-03-14T01:14:44;93025.34;;;2.11;73.82
10718;BME280;13513;42.700;23.124;2023-03-14T01:17:15;93017.55;;;1.94;74.82
10718;BME280;13513;42.700;23.124;2023-03-14T01:19:46;93013.69;;;1.84;75.74
10718;BME280;13513;42.700;23.124;2023-03-14T01:22:17;93010.45;;;1.82;76.29
10718;BME280;13513;42.700;23.124;2023-03-14T01:24:48;93004.06;;;1.84;77.28
10718;BME280;13513;42.700;23.124;2023-03-14T01:27:19;93001.38;;;1.88;76.01
10718;BME280;13513;42.700;23.124;2023-03-14T01:29:50;93003.65;;;1.81;76.37
10718;BME280;13513;42.700;23.124;2023-03-14T01:32:21;93005.95;;;1.80;76.03
10718;BME280;13513;42.700;23.124;2023-03-14T01:34:52;93005.95;;;1.80;76.41
10718;BME280;13513;42.700;23.124;2023-03-14T01:37:23;93003.73;;;1.77;76.99
10718;BME280;13513;42.700;23.124;2023-03-14T01:39:54;93002.28;;;1.68;77.08
10718;BME280;13513;42.700;23.124;2023-03-14T01:42:25;92995.91;;;1.77;77.60
10718;BME280;13513;42.700;23.124;2023-03-14T01:44:58;92987.28;;;1.76;77.67
10718;BME280;13513;42.700;23.124;2023-03-14T01:47:29;92981.57;;;1.60;78.46
10718;BME280;13513;42.700;23.124;2023-03-14T01:50:02;92980.27;;;1.60;79.34
10718;BME280;13513;42.700;23.124;2023-03-14T01:52:36;92976.37;;;1.60;79.35
10718;BME280;13513;42.700;23.124;2023-03-14T01:55:17;92971.30;;;1.62;78.35
10718;BME280;13513;42.700;23.124;2023-03-14T01:57:44;92968.97;;;1.57;78.75
10718;BME280;13513;42.700;23.124;2023-03-14T02:00:17;92967.14;;;1.57;79.75
10718;BME280;13513;42.700;23.124;2023-03-14T02:03:34;92967.84;;;1.55;80.01
10718;BME280;13513;42.700;23.124;2023-03-14T02:05:21;92960.04;;;1.55;80.75
10718;BME280;13513;42.700;23.124;2023-03-14T02:07:54;92971.31;;;1.52;81.15
10718;BME280;13513;42.700;23.124;2023-03-14T02:10:37;92966.84;;;1.56;80.29
10718;BME280;13513;42.700;23.124;2023-03-14T02:12:59;92971.31;;;1.52;79.77
10718;BME280;13513;42.700;23.124;2023-03-14T02:15:31;92968.71;;;1.52;79.97
10718;BME280;13513;42.700;23.124;2023-03-14T02:18:03;92973.39;;;1.46;80.20
10718;BME280;13513;42.700;23.124;2023-03-14T02:23:13;92979.13;;;1.52;80.92
10718;BME280;13513;42.700;23.124;2023-03-14T02:25:53;92979.13;;;1.52;81.14
10718;BME280;13513;42.700;23.124;2023-03-14T02:28:23;92969.98;;;1.45;78.88
10718;BME280;13513;42.700;23.124;2023-03-14T02:30:54;92969.31;;;1.37;79.17
10718;BME280;13513;42.700;23.124;2023-03-14T02:33:27;92970.75;;;1.39;80.22
10718;BME280;13513;42.700;23.124;2023-03-14T02:36:06;92974.73;;;1.35;79.18
10718;BME280;13513;42.700;23.124;2023-03-14T02:41:20;92971.95;;;1.26;80.30
10718;BME280;13513;42.700;23.124;2023-03-14T02:43:51;92974.02;;;1.20;81.15
10718;BME280;13513;42.700;23.124;2023-03-14T02:46:23;92978.38;;;1.30;81.08
10718;BME280;13513;42.700;23.124;2023-03-14T02:48:58;92978.49;;;1.33;80.92
10718;BME280;13513;42.700;23.124;2023-03-14T02:51:28;92975.59;;;1.32;80.57
10718;BME280;13513;42.700;23.124;2023-03-14T02:53:59;92973.55;;;1.27;81.12
10718;BME280;13513;42.700;23.124;2023-03-14T02:56:30;92978.71;;;1.31;81.16
10718;BME280;13513;42.700;23.124;2023-03-14T02:59:04;92977.34;;;1.35;81.04
10718;BME280;13513;42.700;23.124;2023-03-14T03:01:35;92971.73;;;1.38;80.65
10718;BME280;13513;42.700;23.124;2023-03-14T03:04:06;92973.03;;;1.38;80.30
10718;BME280;13513;42.700;23.124;2023-03-14T03:06:38;92976.86;;;1.42;79.85
10718;BME280;13513;42.700;23.124;2023-03-14T03:09:10;92982.25;;;1.41;80.44
10718;BME280;13513;42.700;23.124;2023-03-14T03:11:42;92975.26;;;1.41;78.44
10718;BME280;13513;42.700;23.124;2023-03-14T03:14:12;92977.45;;;1.38;77.37
10718;BME280;13513;42.700;23.124;2023-03-14T03:16:43;92972.13;;;1.35;77.76
10718;BME280;13513;42.700;23.124;2023-03-14T03:19:14;92970.61;;;1.37;78.01
10718;BME280;13513;42.700;23.124;2023-03-14T03:21:44;92971.91;;;1.37;78.07
10718;BME280;13513;42.700;23.124;2023-03-14T03:24:16;92973.10;;;1.34;78.29
10718;BME280;13513;42.700;23.124;2023-03-14T03:26:47;92971.61;;;1.36;78.35
10718;BME280;13513;42.700;23.124;2023-03-14T03:29:17;92964.25;;;1.39;76.83
10718;BME280;13513;42.700;23.124;2023-03-14T03:31:48;92968.45;;;1.40;77.22
10718;BME280;13513;42.700;23.124;2023-03-14T03:34:19;92971.02;;;1.51;76.62
10718;BME280;13513;42.700;23.124;2023-03-14T03:36:49;92965.84;;;1.40;76.01
10718;BME280;13513;42.700;23.124;2023-03-14T03:39:20;92968.45;;;1.40;76.74
10718;BME280;13513;42.700;23.124;2023-03-14T03:41:51;92969.83;;;1.36;77.17
10718;BME280;13513;42.700;23.124;2023-03-14T03:44:22;92969.38;;;1.33;78.00
10718;BME280;13513;42.700;23.124;2023-03-14T03:46:53;92967.22;;;1.36;77.30
10718;BME280;13513;42.700;23.124;2023-03-14T03:49:23;92971.69;;;1.32;77.05
10718;BME280;13513;42.700;23.124;2023-03-14T03:51:58;92971.88;;;1.30;75.85
10718;BME280;13513;42.700;23.124;2023-03-14T03:54:30;92979.80;;;1.33;77.38
10718;BME280;13513;42.700;23.124;2023-03-14T03:57:01;92974.73;;;1.35;76.64
10718;BME280;13513;42.700;23.124;2023-03-14T03:59:32;92973.62;;;1.23;77.43
10718;BME280;13513;42.700;23.124;2023-03-14T04:02:02;92972.87;;;1.29;77.20
10718;BME280;13513;42.700;23.124;2023-03-14T04:04:35;92970.02;;;1.35;76.83
10718;BME280;13513;42.700;23.124;2023-03-14T04:07:06;92972.24;;;1.38;76.36
10718;BME280;13513;42.700;23.124;2023-03-14T04:09:39;92968.56;;;1.43;76.06
10718;BME280;13513;42.700;23.124;2023-03-14T04:12:11;92969.68;;;1.44;75.67
10718;BME280;13513;42.700;23.124;2023-03-14T04:14:42;92958.27;;;1.28;75.85
10718;BME280;13513;42.700;23.124;2023-03-14T04:17:13;92959.20;;;1.21;76.29
10718;BME280;13513;42.700;23.124;2023-03-14T04:19:44;92959.75;;;1.27;76.56
10718;BME280;13513;42.700;23.124;2023-03-14T04:22:15;92958.08;;;1.30;75.62
10718;BME280;13513;42.700;23.124;2023-03-14T04:24:46;92951.83;;;1.41;76.00
10718;BME280;13513;42.700;23.124;2023-03-14T04:27:16;92953.51;;;1.21;76.81
10718;BME280;13513;42.700;23.124;2023-03-14T04:29:47;92945.06;;;1.02;78.22
10718;BME280;13513;42.700;23.124;2023-03-14T04:32:18;92943.46;;;1.01;79.26
10718;BME280;13513;42.700;23.124;2023-03-14T04:34:49;92946.34;;;0.85;80.00
10718;BME280;13513;42.700;23.124;2023-03-14T04:37:20;92936.11;;;0.73;81.62
10718;BME280;13513;42.700;23.124;2023-03-14T04:39:50;92941.19;;;0.71;82.71
10718;BME280;13513;42.700;23.124;2023-03-14T04:42:21;92933.64;;;0.65;81.75
10718;BME280;13513;42.700;23.124;2023-03-14T04:44:52;92931.55;;;0.65;81.78
10718;BME280;13513;42.700;23.124;2023-03-14T04:47:23;92928.33;;;0.63;81.99
10718;BME280;13513;42.700;23.124;2023-03-14T04:49:54;92926.47;;;0.67;82.18
10718;BME280;13513;42.700;23.124;2023-03-14T04:52:25;92924.48;;;0.80;81.77
10718;BME280;13513;42.700;23.124;2023-03-14T04:54:55;92931.78;;;0.91;81.45
10718;BME280;13513;42.700;23.124;2023-03-14T04:57:25;92920.35;;;1.02;80.68
10718;BME280;13513;42.700;23.124;2023-03-14T04:59:56;92921.58;;;1.06;80.74
10718;BME280;13513;42.700;23.124;2023-03-14T05:02:28;92923.69;;;1.41;78.81
10718;BME280;13513;42.700;23.124;2023-03-14T05:04:59;92923.34;;;1.50;78.00
10718;BME280;13513;42.700;23.124;2023-03-14T05:07:30;92916.24;;;1.48;77.77
10718;BME280;13513;42.700;23.124;2023-03-14T05:10:00;92919.61;;;1.59;77.63
10718;BME280;13513;42.700;23.124;2023-03-14T05:12:31;92920.39;;;1.77;78.57
10718;BME280;13513;42.700;23.124;2023-03-14T05:15:01;92913.25;;;2.22;75.07
10718;BME280;13513;42.700;23.124;2023-03-14T05:17:35;92910.33;;;2.77;70.14
10718;BME280;13513;42.700;23.124;2023-03-14T05:20:08;92907.50;;;3.24;67.60
10718;BME280;13513;42.700;23.124;2023-03-14T05:22:40;92904.41;;;3.66;66.77
10718;BME280;13513;42.700;23.124;2023-03-14T05:25:10;92909.59;;;4.29;63.02
10718;BME280;13513;42.700;23.124;2023-03-14T05:27:43;92916.50;;;4.86;60.67
10718;BME280;13513;42.700;23.124;2023-03-14T05:30:14;92903.30;;;5.48;55.75
10718;BME280;13513;42.700;23.124;2023-03-14T05:32:45;92901.33;;;6.04;52.20
10718;BME280;13513;42.700;23.124;2023-03-14T05:35:16;92900.56;;;6.33;50.26
10718;BME280;13513;42.700;23.124;2023-03-14T05:37:46;92904.34;;;6.76;48.50
10718;BME280;13513;42.700;23.124;2023-03-14T05:40:18;92898.95;;;6.91;46.90
10718;BME280;13513;42.700;23.124;2023-03-14T05:42:49;92891.39;;;7.47;47.40
10718;BME280;13513;42.700;23.124;2023-03-14T05:45:20;92900.13;;;7.96;45.63
10718;BME280;13513;42.700;23.124;2023-03-14T05:47:51;92901.67;;;7.83;45.43
10718;BME280;13513;42.700;23.124;2023-03-14T05:50:22;92901.29;;;8.52;44.24
10718;BME280;13513;42.700;23.124;2023-03-14T05:52:53;92901.29;;;8.80;43.60
10718;BME280;13513;42.700;23.124;2023-03-14T05:55:26;92902.77;;;8.87;42.98
10718;BME280;13513;42.700;23.124;2023-03-14T05:57:58;92899.44;;;8.94;43.04
10718;BME280;13513;42.700;23.124;2023-03-14T06:00:29;92894.53;;;9.31;42.36
10718;BME280;13513;42.700;23.124;2023-03-14T06:02:59;92894.69;;;9.55;41.67
10718;BME280;13513;42.700;23.124;2023-03-14T06:05:30;92891.94;;;9.66;41.39
10718;BME280;13513;42.700;23.124;2023-03-14T06:08:01;92889.59;;;9.86;40.85
10718;BME280;13513;42.700;23.124;2023-03-14T06:10:31;92888.05;;;9.71;41.09
10718;BME280;13513;42.700;23.124;2023-03-14T06:13:02;92889.36;;;10.23;40.62
10718;BME280;13513;42.700;23.124;2023-03-14T06:15:33;92887.10;;;10.77;40.28
10718;BME280;13513;42.700;23.124;2023-03-14T06:18:03;92890.53;;;11.02;39.25
10718;BME280;13513;42.700;23.124;2023-03-14T06:20:36;92889.26;;;11.62;38.44
10718;BME280;13513;42.700;23.124;2023-03-14T06:23:10;92892.84;;;12.22;36.99
10718;BME280;13513;42.700;23.124;2023-03-14T06:25:41;92886.14;;;12.64;35.22
10718;BME280;13513;42.700;23.124;2023-03-14T06:28:12;92887.84;;;12.95;34.05
10718;BME280;13513;42.700;23.124;2023-03-14T06:30:42;92890.11;;;13.40;33.43
10718;BME280;13513;42.700;23.124;2023-03-14T06:33:12;92885.62;;;13.81;32.53
10718;BME280;13513;42.700;23.124;2023-03-14T06:35:43;92881.62;;;13.88;32.52
10718;BME280;13513;42.700;23.124;2023-03-14T06:38:14;92873.63;;;14.16;32.07
10718;BME280;13513;42.700;23.124;2023-03-14T06:40:45;92873.63;;;14.13;32.59
10718;BME280;13513;42.700;23.124;2023-03-14T06:43:16;92877.11;;;13.79;32.12
10718;BME280;13513;42.700;23.124;2023-03-14T06:45:47;92877.08;;;13.19;32.71
10718;BME280;13513;42.700;23.124;2023-03-14T06:48:18;92876.66;;;11.45;34.56
10718;BME280;13513;42.700;23.124;2023-03-14T06:50:49;92874.19;;;11.63;34.22
10718;BME280;13513;42.700;23.124;2023-03-14T06:53:21;92864.95;;;11.68;35.58
10718;BME280;13513;42.700;23.124;2023-03-14T06:55:51;92866.53;;;12.08;35.11
10718;BME280;13513;42.700;23.124;2023-03-14T06:58:21;92867.45;;;12.31;34.88
10718;BME280;13513;42.700;23.124;2023-03-14T07:00:53;92868.56;;;11.93;35.24
10718;BME280;13513;42.700;23.124;2023-03-14T07:03:23;92868.39;;;12.05;35.97
10718;BME280;13513;42.700;23.124;2023-03-14T07:05:54;92866.77;;;12.53;35.74
10718;BME280;13513;42.700;23.124;2023-03-14T07:08:25;92862.52;;;13.34;33.81
10718;BME280;13513;42.700;23.124;2023-03-14T07:10:57;92857.14;;;14.29;32.38
10718;BME280;13513;42.700;23.124;2023-03-14T07:13:28;92853.90;;;15.08;31.61
10718;BME280;13513;42.700;23.124;2023-03-14T07:15:59;92855.96;;;15.18;30.52
10718;BME280;13513;42.700;23.124;2023-03-14T07:18:29;92854.74;;;14.35;31.53
10718;BME280;13513;42.700;23.124;2023-03-14T07:21:00;92858.22;;;14.00;32.00
10718;BME280;13513;42.700;23.124;2023-03-14T07:23:30;92855.05;;;13.76;32.28
10718;BME280;13513;42.700;23.124;2023-03-14T07:26:02;92858.41;;;12.91;33.14
10718;BME280;13513;42.700;23.124;2023-03-14T07:28:32;92849.65;;;12.21;33.87
10718;BME280;13513;42.700;23.124;2023-03-14T07:31:03;92848.42;;;13.43;32.56
10718;BME280;13513;42.700;23.124;2023-03-14T07:33:34;92855.33;;;13.39;32.15
10718;BME280;13513;42.700;23.124;2023-03-14T07:36:05;92842.55;;;14.09;32.89
10718;BME280;13513;42.700;23.124;2023-03-14T07:38:36;92843.55;;;15.04;31.80
10718;BME280;13513;42.700;23.124;2023-03-14T07:41:07;92846.09;;;16.51;30.05
10718;BME280;13513;42.700;23.124;2023-03-14T07:43:37;92844.83;;;17.67;28.61
10718;BME280;13513;42.700;23.124;2023-03-14T07:46:08;92837.34;;;18.30;27.60
10718;BME280;13513;42.700;23.124;2023-03-14T07:48:39;92828.33;;;18.83;26.71
10718;BME280;13513;42.700;23.124;2023-03-14T07:51:09;92823.58;;;19.67;25.33
10718;BME280;13513;42.700;23.124;2023-03-14T07:53:40;92824.02;;;18.28;26.02
10718;BME280;13513;42.700;23.124;2023-03-14T07:56:11;92821.91;;;18.57;26.42
10718;BME280;13513;42.700;23.124;2023-03-14T07:58:42;92824.53;;;17.29;27.76
10718;BME280;13513;42.700;23.124;2023-03-14T08:01:13;92819.20;;;17.82;27.84
10718;BME280;13513;42.700;23.124;2023-03-14T08:03:44;92816.07;;;17.24;28.81
10718;BME280;13513;42.700;23.124;2023-03-14T08:06:14;92818.74;;;16.38;29.37
10718;BME280;13513;42.700;23.124;2023-03-14T08:08:46;92822.19;;;16.38;29.16
10718;BME280;13513;42.700;23.124;2023-03-14T08:11:18;92823.73;;;16.70;28.74
10718;BME280;13513;42.700;23.124;2023-03-14T08:13:48;92822.05;;;16.56;28.63
10718;BME280;13513;42.700;23.124;2023-03-14T08:16:21;92822.05;;;16.01;29.08
10718;BME280;13513;42.700;23.124;2023-03-14T08:18:52;92822.83;;;16.01;29.41
10718;BME280;13513;42.700;23.124;2023-03-14T08:21:22;92823.21;;;17.82;27.38
10718;BME280;13513;42.700;23.124;2023-03-14T08:23:53;92821.87;;;17.82;27.71
10718;BME280;13513;42.700;23.124;2023-03-14T08:26:25;92812.33;;;18.53;26.45
10718;BME280;13513;42.700;23.124;2023-03-14T08:28:55;92811.40;;;18.31;27.52
10718;BME280;13513;42.700;23.124;2023-03-14T08:31:25;92812.30;;;19.07;26.69
10718;BME280;13513;42.700;23.124;2023-03-14T08:34:00;92801.82;;;19.22;26.77
10718;BME280;13513;42.700;23.124;2023-03-14T08:36:30;92798.19;;;19.29;27.45
10718;BME280;13513;42.700;23.124;2023-03-14T08:39:00;92802.18;;;18.80;27.12
10718;BME280;13513;42.700;23.124;2023-03-14T08:41:31;92801.89;;;18.81;26.33
10718;BME280;13513;42.700;23.124;2023-03-14T08:44:02;92787.95;;;18.68;27.08
10718;BME280;13513;42.700;23.124;2023-03-14T08:46:33;92783.35;;;17.69;27.81
10718;BME280;13513;42.700;23.124;2023-03-14T08:49:04;92779.92;;;18.55;27.56
10718;BME280;13513;42.700;23.124;2023-03-14T08:51:34;92780.06;;;18.04;28.39
10718;BME280;13513;42.700;23.124;2023-03-14T08:54:05;92778.14;;;17.91;28.77
10718;BME280;13513;42.700;23.124;2023-03-14T08:56:36;92769.08;;;20.02;26.20
10718;BME280;13513;42.700;23.124;2023-03-14T08:59:07;92768.99;;;18.92;27.72
10718;BME280;13513;42.700;23.124;2023-03-14T09:01:39;92768.08;;;20.70;25.86
10718;BME280;13513;42.700;23.124;2023-03-14T09:04:11;92766.02;;;20.06;25.92
10718;BME280;13513;42.700;23.124;2023-03-14T09:06:42;92763.36;;;19.29;26.72
10718;BME280;13513;42.700;23.124;2023-03-14T09:09:13;92762.89;;;18.21;27.92
10718;BME280;13513;42.700;23.124;2023-03-14T09:11:42;92752.13;;;20.26;25.42
10718;BME280;13513;42.700;23.124;2023-03-14T09:14:13;92743.17;;;22.69;23.14
10718;BME280;13513;42.700;23.124;2023-03-14T09:16:44;92744.68;;;20.43;25.59
10718;BME280;13513;42.700;23.124;2023-03-14T09:19:15;92743.85;;;17.50;27.96
10718;BME280;13513;42.700;23.124;2023-03-14T09:21:45;92738.59;;;19.45;26.82
10718;BME280;13513;42.700;23.124;2023-03-14T09:24:17;92723.24;;;19.48;26.16
10718;BME280;13513;42.700;23.124;2023-03-14T09:26:48;92729.03;;;20.36;26.48
10718;BME280;13513;42.700;23.124;2023-03-14T09:29:21;92724.84;;;21.42;23.92
10718;BME280;13513;42.700;23.124;2023-03-14T09:31:52;92719.33;;;19.65;26.76
10718;BME280;13513;42.700;23.124;2023-03-14T09:34:23;92718.50;;;19.21;26.61
10718;BME280;13513;42.700;23.124;2023-03-14T09:36:54;92711.25;;;19.35;26.71
10718;BME280;13513;42.700;23.124;2023-03-14T09:39:24;92708.34;;;20.06;26.63
10718;BME280;13513;42.700;23.124;2023-03-14T09:41:56;92703.33;;;21.08;25.30
10718;BME280;13513;42.700;23.124;2023-03-14T09:44:32;92707.27;;;20.07;25.39
10718;BME280;13513;42.700;23.124;2023-03-14T09:47:09;92698.22;;;19.31;25.76
10718;BME280;13513;42.700;23.124;2023-03-14T09:49:39;92697.99;;;20.02;25.37
10718;BME280;13513;42.700;23.124;2023-03-14T09:52:21;92689.30;;;19.66;26.75
10718;BME280;13513;42.700;23.124;2023-03-14T09:54:56;92686.27;;;20.40;24.88
10718;BME280;13513;42.700;23.124;2023-03-14T09:57:23;92681.50;;;21.01;24.65
10718;BME280;13513;42.700;23.124;2023-03-14T09:59:56;92677.84;;;19.63;25.22
10718;BME280;13513;42.700;23.124;2023-03-14T10:02:35;92677.19;;;18.26;27.90
10718;BME280;13513;42.700;23.124;2023-03-14T10:05:04;92672.27;;;18.82;26.82
10718;BME280;13513;42.700;23.124;2023-03-14T10:07:36;92679.27;;;18.29;27.45
10718;BME280;13513;42.700;23.124;2023-03-14T10:10:19;92658.23;;;19.65;26.21
10718;BME280;13513;42.700;23.124;2023-03-14T10:12:47;92653.37;;;19.23;26.75
10718;BME280;13513;42.700;23.124;2023-03-14T10:15:24;92643.41;;;18.30;27.70
10718;BME280;13513;42.700;23.124;2023-03-14T10:17:52;92635.84;;;18.21;27.01
10718;BME280;13513;42.700;23.124;2023-03-14T10:20:30;92633.55;;;17.90;27.70
10718;BME280;13513;42.700;23.124;2023-03-14T10:25:39;92635.18;;;15.32;31.45
10718;BME280;13513;42.700;23.124;2023-03-14T10:28:26;92632.97;;;14.48;33.23
10718;BME280;13513;42.700;23.124;2023-03-14T10:30:58;92629.19;;;14.08;32.64
10718;BME280;13513;42.700;23.124;2023-03-14T10:36:02;92617.98;;;14.16;33.61
10718;BME280;13513;42.700;23.124;2023-03-14T10:38:35;92606.05;;;14.14;34.00
10718;BME280;13513;42.700;23.124;2023-03-14T10:41:18;92603.23;;;14.75;33.40
10718;BME280;13513;42.700;23.124;2023-03-14T10:43:44;92605.83;;;15.13;31.03
10718;BME280;13513;42.700;23.124;2023-03-14T10:46:16;92596.55;;;15.34;31.46
10718;BME280;13513;42.700;23.124;2023-03-14T10:48:46;92596.80;;;15.61;31.84
10718;BME280;13513;42.700;23.124;2023-03-14T10:51:28;92585.34;;;16.24;31.85
10718;BME280;13513;42.700;23.124;2023-03-14T10:54:19;92581.28;;;17.12;30.48
10718;BME280;13513;42.700;23.124;2023-03-14T10:56:45;92572.33;;;17.35;28.96
10718;BME280;13513;42.700;23.124;2023-03-14T10:59:17;92567.91;;;16.98;28.68
10718;BME280;13513;42.700;23.124;2023-03-14T11:02:03;92567.02;;;16.73;29.17
10718;BME280;13513;42.700;23.124;2023-03-14T11:07:33;92548.77;;;16.78;30.01
10718;BME280;13513;42.700;23.124;2023-03-14T11:10:08;92544.73;;;16.96;28.74
10718;BME280;13513;42.700;23.124;2023-03-14T11:15:27;92532.69;;;17.69;27.51
10718;BME280;13513;42.700;23.124;2023-03-14T11:21:02;92514.83;;;19.26;25.85
10718;BME280;13513;42.700;23.124;2023-03-14T11:23:50;92508.66;;;18.95;25.70
10718;BME280;13513;42.700;23.124;2023-03-14T11:26:57;92503.47;;;19.77;24.54
10718;BME280;13513;42.700;23.124;2023-03-14T11:29:39;92500.74;;;17.99;26.87
10718;BME280;13513;42.700;23.124;2023-03-14T11:32:20;92490.30;;;18.36;26.98
10718;BME280;13513;42.700;23.124;2023-03-14T11:34:51;92483.45;;;18.43;26.50
10718;BME280;13513;42.700;23.124;2023-03-14T11:37:33;92480.27;;;18.41;25.60
10718;BME280;13513;42.700;23.124;2023-03-14T11:43:10;92475.56;;;18.91;26.05
10718;BME280;13513;42.700;23.124;2023-03-14T11:45:41;92470.80;;;18.99;26.46
10718;BME280;13513;42.700;23.124;2023-03-14T11:48:28;92462.17;;;18.91;25.76
10718;BME280;13513;42.700;23.124;2023-03-14T11:50:57;92461.88;;;18.81;25.86
10718;BME280;13513;42.700;23.124;2023-03-14T11:56:33;92442.92;;;18.25;26.86
10718;BME280;13513;42.700;23.124;2023-03-14T11:59:03;92435.77;;;18.23;26.50
10718;BME280;13513;42.700;23.124;2023-03-14T12:01:35;92441.09;;;18.67;26.11
10718;BME280;13513;42.700;23.124;2023-03-14T12:06:57;92425.34;;;18.00;26.67
10718;BME280;13513;42.700;23.124;2023-03-14T12:09:29;92414.70;;;18.30;25.23
10718;BME280;13513;42.700;23.124;2023-03-14T12:12:02;92411.09;;;17.69;26.45
10718;BME280;13513;42.700;23.124;2023-03-14T12:14:35;92404.42;;;17.31;26.85
10718;BME280;13513;42.700;23.124;2023-03-14T12:17:25;92406.59;;;16.61;27.30
10718;BME280;13513;42.700;23.124;2023-03-14T12:22:43;92392.84;;;15.92;28.56
10718;BME280;13513;42.700;23.124;2023-03-14T12:25:22;92392.63;;;16.21;28.18
10718;BME280;13513;42.700;23.124;2023-03-14T12:28:16;92385.38;;;15.76;29.12
10718;BME280;13513;42.700;23.124;2023-03-14T12:30:44;92389.73;;;14.93;29.63
10718;BME280;13513;42.700;23.124;2023-03-14T12:33:28;92383.73;;;15.03;30.07
10718;BME280;13513;42.700;23.124;2023-03-14T12:36:00;92369.51;;;15.31;30.36
10718;BME280;13513;42.700;23.124;2023-03-14T12:41:29;92362.30;;;15.53;30.59
10718;BME280;13513;42.700;23.124;2023-03-14T12:46:48;92341.78;;;15.37;31.18
10718;BME280;13513;42.700;23.124;2023-03-14T12:49:19;92338.73;;;15.25;31.07
10718;BME280;13513;42.700;23.124;2023-03-14T12:51:54;92333.53;;;15.34;31.67
10718;BME280;13513;42.700;23.124;2023-03-14T12:54:44;92334.55;;;15.19;31.01
10718;BME280;13513;42.700;23.124;2023-03-14T12:57:28;92322.34;;;15.37;31.68
10718;BME280;13513;42.700;23.124;2023-03-14T13:00:30;92319.69;;;15.53;32.57
10718;BME280;13513;42.700;23.124;2023-03-14T13:02:41;92320.25;;;15.68;31.57
10718;BME280;13513;42.700;23.124;2023-03-14T13:05:21;92319.34;;;15.75;31.73
10718;BME280;13513;42.700;23.124;2023-03-14T13:08:02;92310.68;;;15.83;31.94
10718;BME280;13513;42.700;23.124;2023-03-14T13:10:30;92307.03;;;15.63;31.55
10718;BME280;13513;42.700;23.124;2023-03-14T13:13:17;92303.80;;;15.64;32.18
10718;BME280;13513;42.700;23.124;2023-03-14T13:15:49;92299.09;;;15.74;30.94
10718;BME280;13513;42.700;23.124;2023-03-14T13:18:44;92283.82;;;15.96;30.86
10718;BME280;13513;42.700;23.124;2023-03-14T13:21:25;92287.80;;;16.26;31.26
10718;BME280;13513;42.700;23.124;2023-03-14T13:24:32;92272.17;;;16.49;31.95
10718;BME280;13513;42.700;23.124;2023-03-14T13:26:42;92275.60;;;16.63;30.90
10718;BME280;13513;42.700;23.124;2023-03-14T13:29:28;92265.73;;;17.12;30.58
10718;BME280;13513;42.700;23.124;2023-03-14T13:31:58;92266.03;;;17.11;29.75
10718;BME280;13513;42.700;23.124;2023-03-14T13:34:33;92258.08;;;17.08;30.12
10718;BME280;13513;42.700;23.124;2023-03-14T13:37:04;92252.94;;;17.23;29.08
10718;BME280;13513;42.700;23.124;2023-03-14T13:39:37;92245.95;;;17.24;30.07
10718;BME280;13513;42.700;23.124;2023-03-14T13:42:13;92238.92;;;17.39;29.29
10718;BME280;13513;42.700;23.124;2023-03-14T13:44:42;92229.70;;;17.67;28.74
10718;BME280;13513;42.700;23.124;2023-03-14T13:47:19;92224.17;;;17.31;29.08
10718;BME280;13513;42.700;23.124;2023-03-14T13:49:50;92228.34;;;17.34;28.48
10718;BME280;13513;42.700;23.124;2023-03-14T13:52:28;92222.00;;;17.33;28.96
10718;BME280;13513;42.700;23.124;2023-03-14T13:55:01;92219.26;;;16.78;29.58
10718;BME280;13513;42.700;23.124;2023-03-14T13:57:49;92213.55;;;17.17;29.72
10718;BME280;13513;42.700;23.124;2023-03-14T14:00:22;92211.91;;;17.19;29.44